Disclaimer

Please do not use the information listed here in-flight or in-navigation, as they are not provided to us by the airports but are provided by volunteers, so they might be outdated.

Search


Regions


Airport information page

Radio informations:
Tower (TWR) - 128.0 MHz
Automatic Terminal Information Service (ATIS) - 128.7 MHz
RADAR - 126.0 MHz

Airport informations:
Latitude: 49° 48' 45.00" N
Longitude: 023° 57' 22.00" E
Elevation: 1071 feet - 326 meters
Operating hours: Remarks
Operating agency: Civil government, landing fees and diplomatic clearance may be required
Timezone: UTC+2(+3DT) - Last Sunday in March to last Sunday in October
Fuel: Jet A1, without icing nhibitor.

Runway information:
13/31 - 8235 x 148 feet< - >2510 x 45 meters

Recent METARs:
UKLL 180830Z VRB01MPS CAVOK M01/M04 Q1027 R31/CLRD// NOSIG
UKLL 180900Z VRB01MPS CAVOK M01/M04 Q1027 R31/CLRD// NOSIG
UKLL 180930Z VRB01MPS CAVOK M00/M04 Q1026 R31/CLRD// NOSIG

Airport on the map: